Anapa, Russia
Current Conditions -  °F | °C
As of 8:00 PM on Friday 19 Dec 2014 (Local Time) from URKA Reporting Station
Overcast Overcast  
Wind Chill: 38°   Ceiling: 1300
Heat Index: 41°   Visibility: 6mi
Dew Point: 39°   Wind: 4mph
Humidity: 93%   Direction: 10°N
Pressure: 30.18"   Gusts: NA
Location:  44.89°N, 37.32°E
Report Text: URKA 191700Z 01002MPS 9999 OVC013 05/04 Q1022 RMK QFE762/1016
Loading
Personal Weather Stations






























Interactive Weather Map New forecast layout! Learn more

10-Day Weather Forecast

Advertisements
Track Severe Weather on mobile